Time;durP1;ratioP1;P1;durP2;ratioP2;P2;SDS_P1;SDS_P2;PMS_P1;PMS_P2;Temp;Humidity;BMP_temperature;BMP_pressure;BME280_temperature;BME280_humidity;BME280_pressure;Samples;Min_cycle;Max_cycle;Signal;HPM_P1;HPM_P2
2022/04/16 00:00:40;;;;;;;31.52;11.85;;;;;;;;;;5051533;28;20045;-84
2022/04/16 00:03:25;;;;;;;24.05;10.65;;;;;;;;;;5051699;28;20391;-85
2022/04/16 00:06:11;;;;;;;21.00;10.25;;;;;;;;;;5051357;28;20049;-85
2022/04/16 00:08:56;;;;;;;27.83;9.82;;;;;;;;;;5054134;28;20048;-85
2022/04/16 00:11:42;;;;;;;22.90;10.13;;;;;;;;;;5056855;28;20049;-84
2022/04/16 00:14:29;;;;;;;21.33;9.68;;;;;;;;;;5057210;28;20037;-85
2022/04/16 00:17:15;;;;;;;29.10;11.57;;;;;;;;;;5057004;28;20041;-84
2022/04/16 00:20:02;;;;;;;25.77;11.10;;;;;;;;;;5067961;28;20025;-84
2022/04/16 00:22:47;;;;;;;22.85;9.93;;;;;;;;;;5080986;28;20048;-83
2022/04/16 00:25:34;;;;;;;22.45;10.45;;;;;;;;;;5076429;28;20045;-84
2022/04/16 00:28:20;;;;;;;16.20;9.00;;;;;;;;;;5056525;28;20049;-84
2022/04/16 00:31:05;;;;;;;20.95;8.60;;;;;;;;;;5057111;28;20470;-83
2022/04/16 00:33:52;;;;;;;16.00;8.75;;;;;;;;;;5056906;28;20048;-84
2022/04/16 00:36:37;;;;;;;20.65;8.43;;;;;;;;;;5056639;28;20045;-84
2022/04/16 00:39:23;;;;;;;25.65;9.18;;;;;;;;;;5056817;28;20046;-84
2022/04/16 00:42:08;;;;;;;15.52;8.52;;;;;;;;;;5056670;28;20044;-84
2022/04/16 00:44:54;;;;;;;17.25;8.88;;;;;;;;;;5056854;28;20514;-84
2022/04/16 00:47:40;;;;;;;18.92;9.48;;;;;;;;;;5056594;28;20041;-82
2022/04/16 00:50:26;;;;;;;21.33;8.30;;;;;;;;;;5063184;28;20048;-82
2022/04/16 00:53:12;;;;;;;14.65;7.82;;;;;;;;;;5056496;28;20049;-84
2022/04/16 00:55:58;;;;;;;18.85;7.72;;;;;;;;;;5062000;28;20040;-84
2022/04/16 00:58:43;;;;;;;17.50;7.20;;;;;;;;;;5056238;28;20367;-85
2022/04/16 01:01:28;;;;;;;13.95;6.70;;;;;;;;;;5056443;28;20490;-85
2022/04/16 01:04:14;;;;;;;20.23;6.70;;;;;;;;;;5056526;28;20494;-84
2022/04/16 01:07:00;;;;;;;24.02;6.82;;;;;;;;;;5063527;28;20036;-84
2022/04/16 01:09:45;;;;;;;17.52;6.47;;;;;;;;;;5056715;28;20041;-84
2022/04/16 01:12:31;;;;;;;15.35;7.00;;;;;;;;;;5056157;28;20049;-84
2022/04/16 01:15:18;;;;;;;16.90;6.88;;;;;;;;;;5056592;28;20061;-84
2022/04/16 01:18:04;;;;;;;20.13;8.63;;;;;;;;;;5056392;28;20049;-83
2022/04/16 01:20:49;;;;;;;32.45;9.23;;;;;;;;;;5054850;28;20049;-84
2022/04/16 01:23:34;;;;;;;28.70;8.90;;;;;;;;;;5056298;28;20049;-84
2022/04/16 01:26:22;;;;;;;33.35;9.82;;;;;;;;;;5062623;28;20475;-84
2022/04/16 01:29:08;;;;;;;21.65;10.75;;;;;;;;;;5060582;28;20053;-83
2022/04/16 01:31:54;;;;;;;20.55;9.70;;;;;;;;;;5066358;28;20045;-84
2022/04/16 01:34:40;;;;;;;29.92;10.77;;;;;;;;;;5057895;28;20041;-83
2022/04/16 01:37:31;;;;;;;21.80;10.38;;;;;;;;;;5055834;28;20037;-83
2022/04/16 01:40:16;;;;;;;20.95;10.00;;;;;;;;;;5055213;28;20045;-84
2022/04/16 01:43:01;;;;;;;23.85;9.30;;;;;;;;;;5055501;28;20390;-83
2022/04/16 01:45:49;;;;;;;36.05;10.15;;;;;;;;;;5055913;28;20053;-83
2022/04/16 01:48:35;;;;;;;21.67;7.32;;;;;;;;;;5055912;28;20045;-83
2022/04/16 01:51:21;;;;;;;28.50;10.60;;;;;;;;;;5055635;28;20045;-83
2022/04/16 01:54:06;;;;;;;39.70;14.02;;;;;;;;;;5055168;28;20478;-88
2022/04/16 01:56:51;;;;;;;32.35;11.23;;;;;;;;;;5055931;28;20041;-84
2022/04/16 01:59:36;;;;;;;17.70;9.18;;;;;;;;;;5055055;28;20398;-85
2022/04/16 02:02:22;;;;;;;24.48;11.13;;;;;;;;;;5055221;28;20037;-84
2022/04/16 02:05:09;;;;;;;26.80;10.40;;;;;;;;;;5055557;28;20049;-84
2022/04/16 02:07:54;;;;;;;19.77;7.93;;;;;;;;;;5055122;28;20053;-85
2022/04/16 02:10:39;;;;;;;16.83;8.30;;;;;;;;;;5055253;28;20053;-85
2022/04/16 02:13:25;;;;;;;13.75;7.28;;;;;;;;;;5054950;28;20054;-86
2022/04/16 02:16:10;;;;;;;19.27;7.95;;;;;;;;;;5060627;28;20049;-85
2022/04/16 02:18:56;;;;;;;22.48;8.05;;;;;;;;;;5054894;28;20041;-85
2022/04/16 02:21:44;;;;;;;24.98;8.73;;;;;;;;;;5054497;28;20037;-84
2022/04/16 02:24:29;;;;;;;19.50;8.45;;;;;;;;;;5055449;28;20053;-85
2022/04/16 02:27:14;;;;;;;17.15;9.15;;;;;;;;;;5054527;28;20049;-86
2022/04/16 02:29:59;;;;;;;18.70;9.60;;;;;;;;;;5053923;28;20040;-85
2022/04/16 02:32:47;;;;;;;22.67;11.43;;;;;;;;;;5054985;28;20045;-85
2022/04/16 02:35:33;;;;;;;22.42;11.45;;;;;;;;;;5074584;28;20025;-85
2022/04/16 02:38:18;;;;;;;23.95;10.57;;;;;;;;;;5078961;28;20033;-85
2022/04/16 02:41:04;;;;;;;23.10;9.57;;;;;;;;;;5067954;28;20041;-85
2022/04/16 02:43:49;;;;;;;25.52;8.60;;;;;;;;;;5054866;28;20467;-85
2022/04/16 02:49:39;;;;;;;20.75;7.45;;;;;;;;;;5054364;28;20052;-85
2022/04/16 02:52:25;;;;;;;13.52;6.50;;;;;;;;;;5054340;28;20041;-85
2022/04/16 02:55:09;;;;;;;15.80;6.53;;;;;;;;;;5060709;28;20048;-84
2022/04/16 02:57:55;;;;;;;13.23;5.80;;;;;;;;;;5054438;28;20033;-84
2022/04/16 03:00:41;;;;;;;14.02;6.00;;;;;;;;;;5053659;28;20049;-84
2022/04/16 03:03:28;;;;;;;15.88;6.63;;;;;;;;;;5059724;28;20037;-84
2022/04/16 03:06:14;;;;;;;15.30;6.30;;;;;;;;;;5060600;28;20045;-84
2022/04/16 03:09:01;;;;;;;18.33;5.32;;;;;;;;;;5054190;28;20049;-84
2022/04/16 03:11:46;;;;;;;17.50;7.47;;;;;;;;;;5054158;28;20041;-84
2022/04/16 03:17:35;;;;;;;16.33;6.38;;;;;;;;;;5053842;28;20053;-83
2022/04/16 03:20:21;;;;;;;18.38;6.00;;;;;;;;;;5054158;28;20045;-84
2022/04/16 03:23:07;;;;;;;14.23;5.88;;;;;;;;;;5053824;28;20041;-85
2022/04/16 03:25:53;;;;;;;17.08;5.35;;;;;;;;;;5054190;28;20045;-84
2022/04/16 03:28:40;;;;;;;14.27;5.85;;;;;;;;;;5053473;28;20045;-84
2022/04/16 03:31:26;;;;;;;15.13;6.10;;;;;;;;;;5053731;28;20040;-84
2022/04/16 03:34:12;;;;;;;11.88;5.38;;;;;;;;;;5054080;28;20426;-84
2022/04/16 03:36:57;;;;;;;10.98;4.97;;;;;;;;;;5054078;28;20049;-84
2022/04/16 03:39:44;;;;;;;11.32;5.00;;;;;;;;;;5054149;28;20378;-84
2022/04/16 03:42:28;;;;;;;14.20;5.05;;;;;;;;;;5054367;28;20044;-84
2022/04/16 03:45:21;;;;;;;15.07;5.30;;;;;;;;;;5057897;28;20045;-84
2022/04/16 03:48:07;;;;;;;17.00;4.95;;;;;;;;;;5057679;28;20049;-84
2022/04/16 03:50:52;;;;;;;12.00;5.50;;;;;;;;;;5057022;28;20045;-84
2022/04/16 03:53:38;;;;;;;12.35;5.50;;;;;;;;;;5056622;28;20045;-85
2022/04/16 04:02:33;;;;;;;10.23;4.45;;;;;;;;;;5058086;28;20044;-84
2022/04/16 04:05:18;;;;;;;13.98;4.88;;;;;;;;;;5057182;28;20049;-85
2022/04/16 04:08:08;;;;;;;13.02;6.10;;;;;;;;;;5057668;28;20045;-84
2022/04/16 04:10:54;;;;;;;13.57;6.10;;;;;;;;;;5057081;28;20478;-85
2022/04/16 04:13:39;;;;;;;12.98;5.68;;;;;;;;;;5057056;28;20033;-85
2022/04/16 04:16:24;;;;;;;10.75;5.03;;;;;;;;;;5057373;28;20037;-84
2022/04/16 04:19:10;;;;;;;13.98;4.57;;;;;;;;;;5056921;28;20041;-85
2022/04/16 04:21:55;;;;;;;8.85;4.25;;;;;;;;;;5057282;28;20041;-85
2022/04/16 04:24:42;;;;;;;9.85;4.78;;;;;;;;;;5057098;28;20045;-86
2022/04/16 04:27:27;;;;;;;15.35;7.60;;;;;;;;;;5056729;28;20041;-85
2022/04/16 04:30:13;;;;;;;19.20;6.72;;;;;;;;;;5057203;28;20041;-85
2022/04/16 04:32:59;;;;;;;16.08;5.85;;;;;;;;;;5057307;28;20045;-85
2022/04/16 04:35:45;;;;;;;10.43;5.10;;;;;;;;;;5057804;28;20045;-87
2022/04/16 04:38:30;;;;;;;9.32;5.20;;;;;;;;;;5059140;28;20057;-86
2022/04/16 04:41:15;;;;;;;16.75;5.40;;;;;;;;;;5056406;28;20036;-85
2022/04/16 04:44:01;;;;;;;17.60;8.02;;;;;;;;;;5056759;28;20049;-85
2022/04/16 04:46:46;;;;;;;13.75;8.20;;;;;;;;;;5056922;28;20394;-84
2022/04/16 04:49:32;;;;;;;16.65;7.25;;;;;;;;;;5072489;28;20033;-84
2022/04/16 04:52:26;;;;;;;14.20;7.43;;;;;;;;;;5081388;28;20041;-84
2022/04/16 04:55:13;;;;;;;11.68;5.70;;;;;;;;;;5071559;28;20044;-84
2022/04/16 04:57:58;;;;;;;15.43;6.35;;;;;;;;;;5063060;28;20394;-84
2022/04/16 05:00:44;;;;;;;11.93;5.97;;;;;;;;;;5056249;28;20033;-84
2022/04/16 05:03:29;;;;;;;11.68;6.22;;;;;;;;;;5056144;28;20053;-84
2022/04/16 05:06:15;;;;;;;14.20;5.53;;;;;;;;;;5056499;28;20486;-84
2022/04/16 05:09:00;;;;;;;10.63;5.28;;;;;;;;;;5056099;28;20049;-84
2022/04/16 05:11:46;;;;;;;7.45;4.72;;;;;;;;;;5056216;28;20483;-84
2022/04/16 05:14:32;;;;;;;24.05;14.45;;;;;;;;;;5055988;28;20044;-83
2022/04/16 05:17:17;;;;;;;26.73;12.50;;;;;;;;;;5055681;28;20485;-83
2022/04/16 05:20:06;;;;;;;16.98;8.20;;;;;;;;;;5055935;28;20041;-84
2022/04/16 05:22:53;;;;;;;14.55;6.88;;;;;;;;;;5056018;28;20402;-84
2022/04/16 05:25:38;;;;;;;21.17;8.88;;;;;;;;;;5055806;28;20045;-84
2022/04/16 05:28:23;;;;;;;19.13;11.38;;;;;;;;;;5055304;28;20049;-85
2022/04/16 05:31:09;;;;;;;30.15;14.02;;;;;;;;;;5055953;28;20049;-84
2022/04/16 05:36:59;;;;;;;26.63;10.40;;;;;;;;;;5058304;28;20036;-84
2022/04/16 05:39:45;;;;;;;20.83;8.93;;;;;;;;;;5059502;28;20037;-81
2022/04/16 05:42:30;;;;;;;25.73;11.85;;;;;;;;;;5059200;28;20045;-84
2022/04/16 05:45:15;;;;;;;20.02;10.70;;;;;;;;;;5055106;28;20386;-84
2022/04/16 05:48:01;;;;;;;21.42;9.27;;;;;;;;;;5062010;28;20041;-85
2022/04/16 05:50:46;;;;;;;15.30;8.00;;;;;;;;;;5055549;28;20048;-84
2022/04/16 05:53:32;;;;;;;11.70;6.25;;;;;;;;;;5062501;28;20049;-86
2022/04/16 05:56:18;;;;;;;11.23;6.05;;;;;;;;;;5054475;28;20479;-86
2022/04/16 05:59:04;;;;;;;20.05;7.55;;;;;;;;;;5055316;28;20049;-85
2022/04/16 06:01:49;;;;;;;18.17;8.70;;;;;;;;;;5055369;28;20045;-86
2022/04/16 06:04:35;;;;;;;21.20;8.90;;;;;;;;;;5055514;28;20478;-86
2022/04/16 06:07:21;;;;;;;16.02;7.35;;;;;;;;;;5055300;28;20390;-85
2022/04/16 06:10:07;;;;;;;13.23;6.43;;;;;;;;;;5055029;28;20057;-86
2022/04/16 06:12:52;;;;;;;17.98;6.13;;;;;;;;;;5055319;28;20045;-86
2022/04/16 06:15:41;;;;;;;15.15;7.15;;;;;;;;;;5055714;28;20041;-86
2022/04/16 06:18:27;;;;;;;15.80;6.22;;;;;;;;;;5054743;28;20041;-86
2022/04/16 06:21:13;;;;;;;18.58;7.45;;;;;;;;;;5055503;28;20471;-86
2022/04/16 06:23:58;;;;;;;9.18;5.55;;;;;;;;;;5055786;28;20041;-85
2022/04/16 06:26:45;;;;;;;15.75;7.40;;;;;;;;;;5061478;28;20045;-86
2022/04/16 06:29:30;;;;;;;18.27;6.65;;;;;;;;;;5067354;28;20036;-86
2022/04/16 06:32:16;;;;;;;13.63;5.78;;;;;;;;;;5062390;28;20429;-85
2022/04/16 06:35:05;;;;;;;12.57;6.25;;;;;;;;;;5062073;28;20033;-90
2022/04/16 06:37:50;;;;;;;12.02;4.97;;;;;;;;;;5061698;28;20045;-86
2022/04/16 06:40:36;;;;;;;24.65;13.80;;;;;;;;;;5052522;28;20462;-84
2022/04/16 06:43:21;;;;;;;12.80;8.55;;;;;;;;;;5060734;28;20049;-84
2022/04/16 06:46:10;;;;;;;20.30;11.45;;;;;;;;;;5065658;28;20057;-84
2022/04/16 06:48:55;;;;;;;15.63;6.65;;;;;;;;;;5057884;28;20049;-83
2022/04/16 06:51:41;;;;;;;85.32;45.13;;;;;;;;;;5045657;28;20395;-84
2022/04/16 06:54:26;;;;;;;13.00;6.10;;;;;;;;;;5045820;28;20049;-84
2022/04/16 06:57:12;;;;;;;13.15;5.40;;;;;;;;;;5053824;28;20037;-85
2022/04/16 06:59:57;;;;;;;13.23;7.03;;;;;;;;;;5052981;28;20052;-84
2022/04/16 07:02:42;;;;;;;24.55;16.38;;;;;;;;;;5065950;28;20060;-85
2022/04/16 07:05:28;;;;;;;14.50;11.35;;;;;;;;;;5076918;28;20049;-84
2022/04/16 07:08:14;;;;;;;9.68;5.03;;;;;;;;;;5070933;28;20045;-84
2022/04/16 07:10:59;;;;;;;7.47;4.82;;;;;;;;;;5053890;28;20398;-85
2022/04/16 07:13:44;;;;;;;16.20;5.82;;;;;;;;;;5052775;28;20037;-84
2022/04/16 07:16:29;;;;;;;27.25;14.68;;;;;;;;;;5053090;28;20045;-85
2022/04/16 07:19:14;;;;;;;10.63;6.38;;;;;;;;;;5059391;28;20041;-85
2022/04/16 07:22:00;;;;;;;8.93;5.47;;;;;;;;;;5053565;28;20033;-85
2022/04/16 07:24:47;;;;;;;7.93;4.38;;;;;;;;;;5054160;28;20041;-86
2022/04/16 07:27:33;;;;;;;12.32;6.05;;;;;;;;;;5053641;28;20045;-84
2022/04/16 07:30:18;;;;;;;10.60;5.82;;;;;;;;;;5053998;28;20045;-85
2022/04/16 07:33:04;;;;;;;11.52;6.28;;;;;;;;;;5053625;28;20041;-85
2022/04/16 07:35:49;;;;;;;16.00;7.82;;;;;;;;;;5053980;28;20041;-85
2022/04/16 07:38:34;;;;;;;8.02;4.45;;;;;;;;;;5053062;28;20041;-86
2022/04/16 07:41:20;;;;;;;15.98;8.65;;;;;;;;;;5053447;28;20041;-85
2022/04/16 07:44:05;;;;;;;18.58;9.02;;;;;;;;;;5052400;28;20049;-83
2022/04/16 07:46:51;;;;;;;16.52;7.43;;;;;;;;;;5055065;28;20045;-84
2022/04/16 07:49:36;;;;;;;18.60;8.93;;;;;;;;;;5053506;28;20048;-85
2022/04/16 07:52:24;;;;;;;9.93;5.82;;;;;;;;;;5053355;28;20045;-81
2022/04/16 07:55:09;;;;;;;14.40;7.90;;;;;;;;;;5052274;28;20052;-84
2022/04/16 07:57:59;;;;;;;20.77;6.53;;;;;;;;;;5052992;28;20057;-82
2022/04/16 08:00:45;;;;;;;11.93;6.18;;;;;;;;;;5053246;28;20045;-76
2022/04/16 08:03:30;;;;;;;12.02;7.35;;;;;;;;;;5053454;28;20045;-75
2022/04/16 08:06:16;;;;;;;10.73;4.05;;;;;;;;;;5053003;28;20045;-76
2022/04/16 08:09:03;;;;;;;9.90;7.22;;;;;;;;;;5052632;28;20041;-75
2022/04/16 08:11:48;;;;;;;8.73;5.53;;;;;;;;;;5053335;28;20049;-76
2022/04/16 08:14:34;;;;;;;9.32;5.97;;;;;;;;;;5059911;28;20045;-76
2022/04/16 08:17:19;;;;;;;16.20;6.97;;;;;;;;;;5053644;28;20040;-75
2022/04/16 08:20:06;;;;;;;11.05;7.57;;;;;;;;;;5060122;28;20045;-77
2022/04/16 08:22:52;;;;;;;7.90;5.95;;;;;;;;;;5053386;28;20041;-75
2022/04/16 08:28:22;;;;;;;16.95;10.25;;;;;;;;;;5053996;28;20398;-75
2022/04/16 08:31:08;;;;;;;9.90;6.90;;;;;;;;;;5063168;28;20079;-76
2022/04/16 08:33:54;;;;;;;13.90;9.88;;;;;;;;;;5057237;28;20044;-76
2022/04/16 08:36:39;;;;;;;14.38;9.00;;;;;;;;;;5056633;28;20041;-75
2022/04/16 08:39:25;;;;;;;7.32;5.70;;;;;;;;;;5063940;28;20053;-75
2022/04/16 08:42:11;;;;;;;16.35;9.27;;;;;;;;;;5067082;28;20036;-77
2022/04/16 08:44:56;;;;;;;11.18;4.88;;;;;;;;;;5057119;28;20044;-75
2022/04/16 08:47:42;;;;;;;19.38;9.13;;;;;;;;;;5056717;28;20408;-76
2022/04/16 08:50:28;;;;;;;13.35;8.52;;;;;;;;;;5056289;28;20041;-76
2022/04/16 08:53:15;;;;;;;6.50;4.55;;;;;;;;;;5055966;28;20053;-77
2022/04/16 08:56:00;;;;;;;12.10;7.47;;;;;;;;;;5056248;28;20037;-76
2022/04/16 08:58:46;;;;;;;14.23;9.13;;;;;;;;;;5056387;28;20037;-76
2022/04/16 09:01:34;;;;;;;12.15;7.68;;;;;;;;;;5055673;28;20052;-76
2022/04/16 09:04:23;;;;;;;12.23;7.20;;;;;;;;;;5055793;28;20040;-76
2022/04/16 09:07:09;;;;;;;10.38;7.68;;;;;;;;;;5054960;28;20037;-77
2022/04/16 09:10:05;;;;;;;10.40;7.65;;;;;;;;;;5055246;28;20037;-75
2022/04/16 09:12:53;;;;;;;13.48;9.18;;;;;;;;;;5055559;28;20045;-77
2022/04/16 09:15:38;;;;;;;8.88;6.00;;;;;;;;;;5055222;28;20394;-75
2022/04/16 09:18:24;;;;;;;12.15;7.00;;;;;;;;;;5057108;28;20049;-75
2022/04/16 09:21:12;;;;;;;10.18;7.43;;;;;;;;;;5057920;28;20385;-78
2022/04/16 09:23:59;;;;;;;9.35;7.60;;;;;;;;;;5055203;28;20061;-77
2022/04/16 09:26:48;;;;;;;8.57;5.32;;;;;;;;;;5055172;28;20041;-77
2022/04/16 09:29:34;;;;;;;7.70;5.85;;;;;;;;;;5057515;28;20037;-76
2022/04/16 09:32:25;;;;;;;13.40;7.75;;;;;;;;;;5055239;28;20057;-76
2022/04/16 09:35:33;;;;;;;10.23;6.85;;;;;;;;;;5054745;28;20045;-77
2022/04/16 09:38:18;;;;;;;7.43;5.63;;;;;;;;;;5055392;28;20048;-76
2022/04/16 09:41:08;;;;;;;12.15;7.68;;;;;;;;;;5053482;28;20033;-76
2022/04/16 09:43:53;;;;;;;10.15;7.82;;;;;;;;;;5055853;28;20049;-76
2022/04/16 09:46:39;;;;;;;10.55;6.70;;;;;;;;;;5055823;28;20041;-76
2022/04/16 09:49:25;;;;;;;12.50;7.68;;;;;;;;;;5057612;28;20041;-76
2022/04/16 09:52:12;;;;;;;10.60;6.65;;;;;;;;;;5056167;28;20045;-76
2022/04/16 09:55:00;;;;;;;11.65;8.25;;;;;;;;;;5056669;28;20402;-76
2022/04/16 09:57:49;;;;;;;10.65;7.03;;;;;;;;;;5055878;28;20036;-76
2022/04/16 10:00:36;;;;;;;5.78;4.45;;;;;;;;;;5056867;28;20373;-78
2022/04/16 10:03:21;;;;;;;7.32;5.93;;;;;;;;;;5063086;28;20044;-78
2022/04/16 10:06:07;;;;;;;9.55;7.43;;;;;;;;;;5055527;28;20045;-76
2022/04/16 10:08:54;;;;;;;10.75;6.30;;;;;;;;;;5055536;28;20041;-76
2022/04/16 10:15:08;;;;;;;10.38;6.22;;;;;;;;;;5054017;28;20045;-76
2022/04/16 10:17:54;;;;;;;7.40;5.55;;;;;;;;;;5055389;28;20048;-77
2022/04/16 10:20:50;;;;;;;10.85;6.57;;;;;;;;;;5062021;28;20045;-76
2022/04/16 10:23:40;;;;;;;10.40;7.28;;;;;;;;;;5056678;28;20045;-76
2022/04/16 10:26:40;;;;;;;9.15;7.05;;;;;;;;;;5054785;28;20037;-77
2022/04/16 10:29:25;;;;;;;12.65;7.57;;;;;;;;;;5054944;28;20037;-76
2022/04/16 10:32:15;;;;;;;10.18;4.65;;;;;;;;;;5054796;28;20048;-76
2022/04/16 10:35:05;;;;;;;7.95;5.78;;;;;;;;;;5061462;28;20394;-75
2022/04/16 10:37:54;;;;;;;8.90;6.05;;;;;;;;;;5054411;28;20510;-78
2022/04/16 10:40:41;;;;;;;8.10;6.60;;;;;;;;;;5055281;28;20038;-76
2022/04/16 10:43:31;;;;;;;10.55;6.80;;;;;;;;;;5054500;28;20045;-76
2022/04/16 10:46:17;;;;;;;7.75;6.10;;;;;;;;;;5055034;28;20049;-76
2022/04/16 10:49:06;;;;;;;8.68;6.75;;;;;;;;;;5055935;28;20037;-76
2022/04/16 10:51:52;;;;;;;15.18;8.13;;;;;;;;;;5054446;28;20041;-77
2022/04/16 10:54:38;;;;;;;10.68;6.75;;;;;;;;;;5055378;28;20052;-76
2022/04/16 10:57:23;;;;;;;7.30;5.38;;;;;;;;;;5054393;28;20053;-74
2022/04/16 11:00:13;;;;;;;11.48;7.75;;;;;;;;;;5053125;28;20041;-75
2022/04/16 11:03:30;;;;;;;10.23;7.13;;;;;;;;;;5053342;28;20049;-75
2022/04/16 11:06:18;;;;;;;6.82;5.25;;;;;;;;;;5056089;28;20041;-75
2022/04/16 11:09:04;;;;;;;13.48;5.03;;;;;;;;;;5052590;28;20045;-75
2022/04/16 11:11:52;;;;;;;12.65;5.43;;;;;;;;;;5052223;28;20044;-76
2022/04/16 11:14:38;;;;;;;6.65;4.00;;;;;;;;;;5052511;28;20053;-74
2022/04/16 11:17:24;;;;;;;11.23;4.32;;;;;;;;;;5052201;28;20049;-75
2022/04/16 11:20:10;;;;;;;7.45;4.40;;;;;;;;;;5053062;28;20044;-75
2022/04/16 11:22:56;;;;;;;11.15;5.53;;;;;;;;;;5052588;28;20044;-76
2022/04/16 11:34:56;;;;;;;9.83;5.43;;;;;;;;;;5070396;28;20044;-78
2022/04/16 11:37:45;;;;;;;9.13;5.30;;;;;;;;;;5073578;28;20041;-79
2022/04/16 11:40:33;;;;;;;7.22;4.90;;;;;;;;;;5065303;28;20045;-77
2022/04/16 11:43:23;;;;;;;11.82;7.18;;;;;;;;;;5063968;28;20053;-77
2022/04/16 11:46:12;;;;;;;18.70;7.55;;;;;;;;;;5054598;28;20044;-76
2022/04/16 11:49:00;;;;;;;12.60;6.82;;;;;;;;;;5060871;28;20049;-76
2022/04/16 11:51:47;;;;;;;6.85;5.22;;;;;;;;;;5060582;28;20057;-75
2022/04/16 11:54:31;;;;;;;11.88;6.20;;;;;;;;;;5054087;28;20037;-80
2022/04/16 11:57:21;;;;;;;17.65;12.32;;;;;;;;;;5054575;28;20402;-77
2022/04/16 12:00:11;;;;;;;69.90;46.60;;;;;;;;;;5053277;28;20037;-76
2022/04/16 12:02:56;;;;;;;43.97;26.27;;;;;;;;;;5055041;28;20084;-78
2022/04/16 12:05:47;;;;;;;30.48;22.13;;;;;;;;;;5059551;28;20045;-79
2022/04/16 12:08:34;;;;;;;21.58;8.30;;;;;;;;;;5059287;28;20417;-79
2022/04/16 12:11:22;;;;;;;6.43;4.18;;;;;;;;;;5073066;28;20036;-78
2022/04/16 12:14:17;;;;;;;12.60;6.35;;;;;;;;;;5057644;28;20044;-77
2022/04/16 12:17:02;;;;;;;13.18;7.90;;;;;;;;;;5058609;28;20406;-77
2022/04/16 12:20:15;;;;;;;3.80;2.58;;;;;;;;;;5057457;28;20052;-76
2022/04/16 12:23:02;;;;;;;9.73;5.88;;;;;;;;;;5063773;28;20041;-77
2022/04/16 12:25:48;;;;;;;4.47;2.90;;;;;;;;;;5057556;28;20049;-76
2022/04/16 12:28:36;;;;;;;13.95;5.40;;;;;;;;;;5058093;28;20402;-77
2022/04/16 12:31:30;;;;;;;7.90;4.13;;;;;;;;;;5057332;28;20044;-77
2022/04/16 12:34:15;;;;;;;8.95;4.95;;;;;;;;;;5056811;28;20041;-76
2022/04/16 12:37:00;;;;;;;6.78;4.40;;;;;;;;;;5063651;28;20470;-77
2022/04/16 12:39:46;;;;;;;13.65;6.07;;;;;;;;;;5055463;28;20053;-76
2022/04/16 12:42:31;;;;;;;9.40;5.30;;;;;;;;;;5062949;28;20486;-76
2022/04/16 12:45:17;;;;;;;7.38;3.30;;;;;;;;;;5056963;28;20037;-76
2022/04/16 12:48:02;;;;;;;6.45;4.07;;;;;;;;;;5057292;28;20045;-76
2022/04/16 12:50:47;;;;;;;6.05;4.03;;;;;;;;;;5056507;28;20053;-77
2022/04/16 12:53:33;;;;;;;9.68;4.78;;;;;;;;;;5056411;28;20041;-77
2022/04/16 12:56:19;;;;;;;8.77;4.63;;;;;;;;;;5063346;28;20033;-76
2022/04/16 12:59:05;;;;;;;10.77;4.38;;;;;;;;;;5057287;28;20056;-77
2022/04/16 13:01:50;;;;;;;25.05;15.02;;;;;;;;;;5062627;28;20045;-75
2022/04/16 13:04:37;;;;;;;5.05;3.05;;;;;;;;;;5055962;28;20049;-75
2022/04/16 13:07:22;;;;;;;9.85;4.45;;;;;;;;;;5055627;28;20486;-75
2022/04/16 13:10:09;;;;;;;5.18;2.67;;;;;;;;;;5056073;28;20478;-75
2022/04/16 13:12:55;;;;;;;5.57;4.00;;;;;;;;;;5055042;28;20049;-75
2022/04/16 13:15:40;;;;;;;5.18;4.00;;;;;;;;;;5056566;28;20040;-77
2022/04/16 13:18:26;;;;;;;5.40;3.20;;;;;;;;;;5056498;28;20049;-76
2022/04/16 13:21:12;;;;;;;7.78;4.95;;;;;;;;;;5055997;28;20041;-76
2022/04/16 13:23:57;;;;;;;5.78;4.38;;;;;;;;;;5063190;28;20045;-76
2022/04/16 13:26:45;;;;;;;5.40;3.97;;;;;;;;;;5063381;28;20049;-76
2022/04/16 13:29:30;;;;;;;17.23;8.05;;;;;;;;;;5056576;28;20045;-76
2022/04/16 13:32:16;;;;;;;7.28;4.38;;;;;;;;;;5061421;28;20040;-75
2022/04/16 13:35:02;;;;;;;6.93;4.43;;;;;;;;;;5055707;28;20045;-75
2022/04/16 13:37:48;;;;;;;10.18;6.15;;;;;;;;;;5054810;28;20394;-75
2022/04/16 13:43:39;;;;;;;8.55;5.10;;;;;;;;;;5061620;28;20041;-75
2022/04/16 13:46:25;;;;;;;15.05;7.72;;;;;;;;;;5060364;28;20041;-77
2022/04/16 13:49:11;;;;;;;5.82;3.83;;;;;;;;;;5077234;28;20029;-76
2022/04/16 13:51:56;;;;;;;13.70;7.38;;;;;;;;;;5055667;28;20052;-76
2022/04/16 13:54:42;;;;;;;8.25;4.47;;;;;;;;;;5055041;28;20045;-75
2022/04/16 13:57:27;;;;;;;15.30;6.50;;;;;;;;;;5054580;28;20040;-74
2022/04/16 14:00:13;;;;;;;8.10;3.78;;;;;;;;;;5055322;28;20045;-76
2022/04/16 14:02:58;;;;;;;11.13;6.85;;;;;;;;;;5054356;28;20041;-77
2022/04/16 14:05:44;;;;;;;9.65;6.22;;;;;;;;;;5054725;28;20041;-77
2022/04/16 14:08:29;;;;;;;9.88;6.22;;;;;;;;;;5054876;28;20049;-77
2022/04/16 14:11:15;;;;;;;13.48;7.93;;;;;;;;;;5055006;28;20057;-76
2022/04/16 14:14:00;;;;;;;6.55;4.47;;;;;;;;;;5054584;28;20045;-75
2022/04/16 14:16:46;;;;;;;14.60;6.90;;;;;;;;;;5054491;28;20037;-75
2022/04/16 14:19:32;;;;;;;12.85;5.80;;;;;;;;;;5059999;28;20044;-76
2022/04/16 14:22:17;;;;;;;10.35;5.60;;;;;;;;;;5054409;28;20044;-77
2022/04/16 14:25:04;;;;;;;12.95;5.75;;;;;;;;;;5054552;28;20053;-76
2022/04/16 14:27:49;;;;;;;6.93;4.75;;;;;;;;;;5053805;28;20033;-76
2022/04/16 14:30:36;;;;;;;8.82;5.47;;;;;;;;;;5060201;28;20490;-75
2022/04/16 14:33:21;;;;;;;10.25;5.57;;;;;;;;;;5054516;28;20041;-80
2022/04/16 14:36:10;;;;;;;8.48;6.00;;;;;;;;;;5053669;28;20044;-80
2022/04/16 14:38:56;;;;;;;9.77;5.28;;;;;;;;;;5054333;28;20052;-78
2022/04/16 14:41:41;;;;;;;9.25;5.68;;;;;;;;;;5054531;28;20040;-84
2022/04/16 14:44:28;;;;;;;14.63;6.80;;;;;;;;;;5056745;28;20044;-78
2022/04/16 14:47:13;;;;;;;8.40;4.88;;;;;;;;;;5060888;28;20037;-81
2022/04/16 14:50:01;;;;;;;12.77;5.07;;;;;;;;;;5060969;28;20041;-80
2022/04/16 14:52:47;;;;;;;16.17;7.60;;;;;;;;;;5053940;28;20390;-78
2022/04/16 14:55:37;;;;;;;10.45;7.20;;;;;;;;;;5053603;28;20044;-76
2022/04/16 14:58:22;;;;;;;8.57;5.38;;;;;;;;;;5054000;28;20040;-77
2022/04/16 15:01:10;;;;;;;9.93;5.68;;;;;;;;;;5054053;28;20041;-76
2022/04/16 15:03:55;;;;;;;13.60;8.05;;;;;;;;;;5053450;28;20044;-77
2022/04/16 15:06:40;;;;;;;15.63;7.70;;;;;;;;;;5053732;28;20041;-76
2022/04/16 15:09:26;;;;;;;7.15;5.55;;;;;;;;;;5060248;28;20486;-77
2022/04/16 15:12:12;;;;;;;28.40;12.55;;;;;;;;;;5053696;28;20037;-78
2022/04/16 15:14:57;;;;;;;26.00;11.95;;;;;;;;;;5053063;28;20048;-78
2022/04/16 15:17:45;;;;;;;29.60;16.30;;;;;;;;;;5053036;28;20045;-77
2022/04/16 15:20:31;;;;;;;40.15;13.27;;;;;;;;;;5059943;28;20037;-77
2022/04/16 15:23:16;;;;;;;12.15;7.20;;;;;;;;;;5053265;28;20045;-76
2022/04/16 15:26:03;;;;;;;15.82;10.20;;;;;;;;;;5053777;28;20044;-76
2022/04/16 15:28:48;;;;;;;17.15;10.40;;;;;;;;;;5053204;28;20407;-76
2022/04/16 15:31:37;;;;;;;31.83;15.18;;;;;;;;;;5053406;28;20044;-75
2022/04/16 15:34:21;;;;;;;45.63;22.73;;;;;;;;;;5053725;28;20045;-76
2022/04/16 15:37:07;;;;;;;45.33;21.05;;;;;;;;;;5053459;28;20410;-77
2022/04/16 15:39:53;;;;;;;60.28;28.58;;;;;;;;;;5056962;28;20037;-76
2022/04/16 15:42:39;;;;;;;30.58;18.08;;;;;;;;;;5056992;28;20498;-76
2022/04/16 15:45:25;;;;;;;25.42;15.05;;;;;;;;;;5057322;28;20044;-75
2022/04/16 15:48:10;;;;;;;27.67;16.42;;;;;;;;;;5056542;28;20045;-77
2022/04/16 15:50:56;;;;;;;27.05;16.52;;;;;;;;;;5057046;28;20053;-77
2022/04/16 15:53:42;;;;;;;36.13;15.07;;;;;;;;;;5064459;28;20041;-77
2022/04/16 15:56:27;;;;;;;30.92;14.88;;;;;;;;;;5056401;28;20037;-76
2022/04/16 15:59:12;;;;;;;24.42;14.20;;;;;;;;;;5062921;28;20425;-77
2022/04/16 16:01:57;;;;;;;24.77;15.75;;;;;;;;;;5068610;28;20029;-77
2022/04/16 16:04:55;;;;;;;31.75;16.77;;;;;;;;;;5078556;28;20049;-76
2022/04/16 16:07:43;;;;;;;36.63;21.27;;;;;;;;;;5057889;28;20053;-77
2022/04/16 16:10:28;;;;;;;43.45;22.60;;;;;;;;;;5057085;28;20045;-76
2022/04/16 16:13:13;;;;;;;38.78;20.63;;;;;;;;;;5057227;28;20045;-75
2022/04/16 16:16:00;;;;;;;43.92;22.77;;;;;;;;;;5056803;28;20398;-77
2022/04/16 16:18:45;;;;;;;31.17;18.83;;;;;;;;;;5056686;28;20037;-77
2022/04/16 16:21:29;;;;;;;25.17;16.13;;;;;;;;;;5056969;28;20029;-76
2022/04/16 16:24:16;;;;;;;24.38;14.90;;;;;;;;;;5063352;28;20044;-77
2022/04/16 16:27:01;;;;;;;27.73;14.18;;;;;;;;;;5056767;28;20049;-79
2022/04/16 16:29:49;;;;;;;24.25;13.68;;;;;;;;;;5056514;28;20049;-76
2022/04/16 16:32:34;;;;;;;23.15;13.50;;;;;;;;;;5056325;28;20049;-77
2022/04/16 16:35:19;;;;;;;27.58;14.85;;;;;;;;;;5056531;28;20048;-77
2022/04/16 16:38:05;;;;;;;19.55;11.93;;;;;;;;;;5056257;28;20049;-76
2022/04/16 16:40:52;;;;;;;25.17;13.73;;;;;;;;;;5055656;28;20071;-76
2022/04/16 16:43:40;;;;;;;27.52;13.98;;;;;;;;;;5063217;28;20052;-77
2022/04/16 16:46:29;;;;;;;33.00;16.67;;;;;;;;;;5056089;28;20041;-77
2022/04/16 16:49:14;;;;;;;29.90;16.95;;;;;;;;;;5055504;28;20040;-78
2022/04/16 16:51:59;;;;;;;27.58;15.48;;;;;;;;;;5055662;28;20489;-77
2022/04/16 16:54:44;;;;;;;28.70;14.60;;;;;;;;;;5062612;28;20041;-76
2022/04/16 16:57:30;;;;;;;51.28;27.65;;;;;;;;;;5055846;28;20045;-77